Alplaus, NY

10:54 AM EDT on May 26, 2015 (GMT -0400)
GE Volunteers | | Change Station
CLOSE
Current Station
Personal Weather Station
Location: Schenectady, NY
Elevation: 350 ft
Nearby Weather Stations

Elev 350 ft 42.83 °N, 73.88 °W | Updated 7 seconds ago

Scattered Clouds
Scattered Clouds
79.2 °F
Feels Like 81 °F
N
2.0
Wind Variable Wind from WSW
Gusts 4.0 mph

Today
High -- | Low -- °F
--% Chance of Precip.
Yesterday
High -- | Low -- °F
Precip. -- in
5:23 AM 8:22 PM
First Quarter, 58% visible
Pressure 30.13 in
Visibility 10.0 miles
Clouds Scattered Clouds 4900 ft
Heat Index 81 °F
Dew Point 65 °F
Humidity 62%
Rainfall 0.00 in
Snow Depth Not available.
UV 3 out of 12
Pollen 9.50 out of 12
Air Quality Not available.
Flu Activity Widespread
METAR KSCH 261248Z 18006KT 10SM SCT049 23/16 A3013

More Conditions Fewer Conditions

Pressure 30.13 in
Visibility 10.0 miles
Clouds Scattered Clouds 4900 ft
Heat Index 81 °F
Dew Point 65 °F
Humidity 62%
Rainfall 0.00 in
Snow Depth Not available.
UV 3 out of 12
Pollen 9.50 out of 12
Air Quality Not available.
Flu Activity Widespread
METAR KSCH 261248Z 18006KT 10SM SCT049 23/16 A3013

More Conditions Fewer Conditions

10-Day Weather Forecast

Almanac

Astronomy

May. 26, 2015 Rise Set
Actual Time
Civil Twilight
Nautical Twilight
Astronomical Twilight
Moon
Length of Visible Light
Length of Day
Tomorrow will be .
, % of the Moon is Illuminated

Today's Extremes

State Highs State Lows

Community

WunderPhotos

Upload Photos

1,824,344 photos uploaded!

WunderBlogs® & News

Nearby

Air Quality

  Air Quality AQ Index Pollutant
Not available.

Snow Depth

Station Depth Elevation

Earthquake Activity

City Distance Mag. Time & Date
Minimum magnitude displayed is 2.5.

Coastal Water Temperatures

Place Temperature

Stations

Nearby Weather Stations

Station Location Temp. Windchill Dew Point Humidity Wind Precip. Elev Updated Type